Time;durP1;ratioP1;P1;durP2;ratioP2;P2;SDS_P1;SDS_P2;PMS_P1;PMS_P2;Temp;Humidity;BMP_temperature;BMP_pressure;BME280_temperature;BME280_humidity;BME280_pressure;Samples;Min_cycle;Max_cycle;Signal;HPM_P1;HPM_P2
2023/12/26 00:02:17;;;;;;;2.17;0.90;;;12.50;68.80;;;;;;5071005;28;20526;-74
2023/12/26 00:04:42;;;;;;;1.10;0.80;;;12.40;68.20;;;;;;5070734;28;20383;-74
2023/12/26 00:07:08;;;;;;;1.60;1.00;;;12.40;68.20;;;;;;5072498;28;20388;-74
2023/12/26 00:09:33;;;;;;;1.60;0.80;;;12.40;66.70;;;;;;5074849;28;20387;-74
2023/12/26 00:11:59;;;;;;;3.10;1.00;;;12.50;66.80;;;;;;5075188;28;20384;-75
2023/12/26 00:14:24;;;;;;;2.70;1.00;;;12.40;67.00;;;;;;5075664;28;20391;-73
2023/12/26 00:16:50;;;;;;;1.70;0.90;;;12.50;65.60;;;;;;5076164;28;20399;-74
2023/12/26 00:19:15;;;;;;;1.20;0.80;;;12.40;64.90;;;;;;5076297;28;20376;-73
2023/12/26 00:21:41;;;;;;;1.50;0.80;;;12.50;64.30;;;;;;5076633;28;20472;-75
2023/12/26 00:24:07;;;;;;;1.30;1.10;;;12.50;64.20;;;;;;5076197;28;20393;-74
2023/12/26 00:26:36;;;;;;;1.70;0.90;;;12.50;64.80;;;;;;5075796;28;20388;-74
2023/12/26 00:29:01;;;;;;;0.98;0.70;;;12.50;64.90;;;;;;5075870;28;20449;-75
2023/12/26 00:31:27;;;;;;;1.30;0.90;;;12.50;63.90;;;;;;5075460;28;20947;-73
2023/12/26 00:33:53;;;;;;;1.00;0.73;;;12.40;64.50;;;;;;5075359;28;20848;-74
2023/12/26 00:36:19;;;;;;;1.75;1.00;;;12.40;65.50;;;;;;5074617;28;20462;-75
2023/12/26 00:38:48;;;;;;;1.80;0.80;;;12.50;65.40;;;;;;5075349;28;20387;-73
2023/12/26 00:41:14;;;;;;;1.70;0.80;;;12.40;65.50;;;;;;5075756;28;20455;-74
2023/12/26 00:43:40;;;;;;;1.40;0.90;;;12.40;65.80;;;;;;5075371;28;20391;-74
2023/12/26 00:46:06;;;;;;;1.07;0.97;;;12.40;66.70;;;;;;5077619;28;20380;-75
2023/12/26 00:48:32;;;;;;;2.65;0.80;;;12.30;66.30;;;;;;5073913;28;20383;-73
2023/12/26 00:50:58;;;;;;;1.90;0.80;;;12.30;66.20;;;;;;5056037;28;20383;-74
2023/12/26 00:53:24;;;;;;;1.40;0.70;;;12.30;66.30;;;;;;5073919;28;20799;-74
2023/12/26 00:55:50;;;;;;;1.10;0.80;;;12.30;65.90;;;;;;5073503;28;20407;-75
2023/12/26 00:58:15;;;;;;;0.90;0.80;;;12.30;64.80;;;;;;5073698;28;20497;-74
2023/12/26 01:00:41;;;;;;;2.00;0.80;;;12.30;65.90;;;;;;5073386;28;20491;-74
2023/12/26 01:03:07;;;;;;;1.27;0.90;;;12.30;65.40;;;;;;5073416;28;20383;-74
2023/12/26 01:05:32;;;;;;;3.00;1.00;;;12.20;65.00;;;;;;5073290;28;20396;-73
2023/12/26 01:07:58;;;;;;;1.05;0.80;;;12.30;65.50;;;;;;5073434;28;20390;-74
2023/12/26 01:10:23;;;;;;;1.85;1.00;;;12.20;63.40;;;;;;5073120;28;20396;-75
2023/12/26 01:12:49;;;;;;;2.97;1.10;;;12.30;63.40;;;;;;5073184;28;20384;-74
2023/12/26 01:15:14;;;;;;;1.40;0.70;;;12.20;63.40;;;;;;5072749;28;20441;-74
2023/12/26 01:17:40;;;;;;;1.20;0.70;;;12.20;63.70;;;;;;5072520;28;20475;-74
2023/12/26 01:20:06;;;;;;;1.10;0.88;;;12.20;64.10;;;;;;5072811;28;20471;-75
2023/12/26 01:22:31;;;;;;;1.80;0.90;;;12.20;64.80;;;;;;5073488;28;20979;-74
2023/12/26 01:24:58;;;;;;;1.40;0.90;;;12.20;66.80;;;;;;5073261;28;20384;-74
2023/12/26 01:27:24;;;;;;;1.07;0.80;;;12.10;67.70;;;;;;5073498;28;20438;-74
2023/12/26 01:29:49;;;;;;;1.10;0.82;;;12.00;68.80;;;;;;5073441;28;20375;-73
2023/12/26 01:32:15;;;;;;;1.10;1.00;;;12.00;69.10;;;;;;5073411;28;20387;-74
2023/12/26 01:34:41;;;;;;;2.10;1.00;;;11.90;69.50;;;;;;5073288;28;20396;-75
2023/12/26 01:37:06;;;;;;;2.60;0.90;;;11.80;71.00;;;;;;5073558;28;20542;-73
2023/12/26 01:39:32;;;;;;;1.30;0.80;;;11.80;72.50;;;;;;5073162;28;20433;-74
2023/12/26 01:41:58;;;;;;;2.78;0.98;;;11.70;73.70;;;;;;5073155;28;20371;-74
2023/12/26 01:44:23;;;;;;;1.60;1.10;;;11.60;77.50;;;;;;5073311;28;20384;-74
2023/12/26 01:46:49;;;;;;;3.40;1.00;;;11.50;78.60;;;;;;5073682;28;20393;-73
2023/12/26 01:49:14;;;;;;;1.80;1.00;;;11.40;79.70;;;;;;5073494;28;20712;-73
2023/12/26 01:51:42;;;;;;;3.28;1.10;;;11.30;81.40;;;;;;5073371;28;20956;-74
2023/12/26 01:54:09;;;;;;;1.80;1.20;;;11.30;82.00;;;;;;5055157;28;20491;-74
2023/12/26 01:56:34;;;;;;;1.30;1.20;;;11.30;82.20;;;;;;5072655;28;20461;-73
2023/12/26 01:59:02;;;;;;;1.92;1.10;;;11.30;82.10;;;;;;5072634;28;20384;-73
2023/12/26 02:01:29;;;;;;;3.30;1.10;;;11.30;83.20;;;;;;5072654;28;20375;-74
2023/12/26 02:03:57;;;;;;;1.77;1.00;;;11.20;82.70;;;;;;5073233;28;20419;-73
2023/12/26 02:06:22;;;;;;;2.72;1.10;;;11.20;84.10;;;;;;5073246;28;20379;-72
2023/12/26 02:08:49;;;;;;;1.48;1.20;;;11.10;85.50;;;;;;5055502;28;20395;-73
2023/12/26 02:11:14;;;;;;;2.75;0.90;;;11.10;86.10;;;;;;5073053;28;20750;-74
2023/12/26 02:13:40;;;;;;;1.83;1.00;;;11.10;85.00;;;;;;5073013;28;20487;-74
2023/12/26 02:16:18;;;;;;;1.10;1.00;;;11.10;87.50;;;;;;5072406;28;20404;-73
2023/12/26 02:18:44;;;;;;;2.00;1.40;;;11.10;86.70;;;;;;5072768;28;20456;-73
2023/12/26 02:21:11;;;;;;;1.52;0.93;;;11.00;85.10;;;;;;5072205;28;20435;-74
2023/12/26 02:23:39;;;;;;;2.20;1.00;;;11.10;85.90;;;;;;5072682;28;20470;-74
2023/12/26 02:26:06;;;;;;;1.80;1.13;;;11.00;86.10;;;;;;5072771;28;20396;-74
2023/12/26 02:28:35;;;;;;;2.42;1.00;;;11.00;85.60;;;;;;5072700;28;20391;-74
2023/12/26 02:31:02;;;;;;;2.47;1.10;;;11.00;84.50;;;;;;5072477;28;20394;-74
2023/12/26 02:33:30;;;;;;;1.20;1.10;;;11.00;85.50;;;;;;5072835;28;20451;-74
2023/12/26 02:35:55;;;;;;;1.70;1.00;;;11.00;86.50;;;;;;5071657;28;20439;-74
2023/12/26 02:38:21;;;;;;;3.40;0.90;;;11.00;85.40;;;;;;5071458;28;20806;-73
2023/12/26 02:40:51;;;;;;;2.60;1.00;;;11.00;84.20;;;;;;5071117;28;20436;-74
2023/12/26 02:43:21;;;;;;;1.70;1.00;;;11.00;85.70;;;;;;5053472;28;20466;-74
2023/12/26 02:45:48;;;;;;;2.70;1.00;;;10.90;86.40;;;;;;5070991;28;20444;-73
2023/12/26 02:48:16;;;;;;;1.50;0.90;;;10.90;86.30;;;;;;5053121;28;20415;-74
2023/12/26 02:50:41;;;;;;;2.47;1.30;;;10.90;86.60;;;;;;5071480;28;20384;-74
2023/12/26 02:53:07;;;;;;;1.00;0.90;;;10.90;86.00;;;;;;5070721;28;20412;-74
2023/12/26 02:55:33;;;;;;;3.08;0.93;;;10.90;86.10;;;;;;5070635;28;20716;-75
2023/12/26 02:57:58;;;;;;;2.40;1.10;;;11.00;85.30;;;;;;5070797;28;20392;-74
2023/12/26 03:00:24;;;;;;;1.00;0.90;;;10.90;85.40;;;;;;5070606;28;20430;-76
2023/12/26 03:02:49;;;;;;;2.70;1.20;;;10.90;85.80;;;;;;5070601;28;20787;-76
2023/12/26 03:05:15;;;;;;;2.30;1.00;;;10.90;86.20;;;;;;5070332;28;20502;-76
2023/12/26 03:07:40;;;;;;;1.10;0.90;;;10.90;87.20;;;;;;5070998;28;20376;-75
2023/12/26 03:10:09;;;;;;;2.30;1.20;;;10.90;86.20;;;;;;5070710;28;20918;-75
2023/12/26 03:12:37;;;;;;;3.30;1.10;;;10.90;85.40;;;;;;5070713;28;20471;-76
2023/12/26 03:15:03;;;;;;;4.00;1.20;;;10.90;83.90;;;;;;5070561;28;20898;-75
2023/12/26 03:17:29;;;;;;;1.80;1.00;;;10.90;84.40;;;;;;5070420;28;20443;-75
2023/12/26 03:19:55;;;;;;;1.90;1.20;;;11.00;85.20;;;;;;5070467;28;20857;-74
2023/12/26 03:22:21;;;;;;;1.70;1.20;;;10.90;87.00;;;;;;5070596;28;20893;-74
2023/12/26 03:24:47;;;;;;;3.20;1.40;;;10.90;87.30;;;;;;5070503;28;20449;-74
2023/12/26 03:27:13;;;;;;;1.80;1.30;;;10.90;85.80;;;;;;5070406;28;20387;-73
2023/12/26 03:29:39;;;;;;;3.25;1.20;;;11.00;84.70;;;;;;5070439;28;20395;-73
2023/12/26 03:32:05;;;;;;;4.60;1.20;;;11.00;83.60;;;;;;5069986;28;20885;-73
2023/12/26 03:34:30;;;;;;;2.63;1.40;;;11.00;83.90;;;;;;5070111;28;20399;-75
2023/12/26 03:36:56;;;;;;;2.50;1.15;;;11.00;84.60;;;;;;5069830;28;20418;-75
2023/12/26 03:39:21;;;;;;;1.80;1.00;;;11.00;85.10;;;;;;5070259;28;20462;-73
2023/12/26 03:41:48;;;;;;;2.97;1.50;;;11.00;85.50;;;;;;5070106;28;20380;-74
2023/12/26 03:44:17;;;;;;;2.30;1.50;;;11.00;84.90;;;;;;5070124;28;20888;-74
2023/12/26 03:46:43;;;;;;;2.80;1.30;;;11.00;86.60;;;;;;5069937;28;20380;-74
2023/12/26 03:49:10;;;;;;;4.47;1.67;;;10.90;87.60;;;;;;5070167;28;20384;-74
2023/12/26 03:51:36;;;;;;;2.40;1.50;;;10.90;87.60;;;;;;5070381;28;20531;-73
2023/12/26 03:54:02;;;;;;;1.70;1.60;;;10.90;87.60;;;;;;5070142;28;20429;-75
2023/12/26 03:56:31;;;;;;;4.30;1.50;;;10.90;88.40;;;;;;5069701;28;20396;-74
2023/12/26 03:58:57;;;;;;;2.20;1.42;;;10.90;88.90;;;;;;5069873;28;20383;-74
2023/12/26 04:01:23;;;;;;;2.20;1.70;;;10.90;90.20;;;;;;5070238;28;20384;-75
2023/12/26 04:03:50;;;;;;;2.85;1.75;;;10.90;90.40;;;;;;5070110;28;20897;-75
2023/12/26 04:06:15;;;;;;;4.93;1.90;;;10.90;90.70;;;;;;5070099;28;20940;-74
2023/12/26 04:08:41;;;;;;;6.85;2.20;;;10.90;90.70;;;;;;5070629;28;20379;-76
2023/12/26 04:11:09;;;;;;;7.30;1.85;;;10.90;90.00;;;;;;5072463;28;20411;-74
2023/12/26 04:13:34;;;;;;;2.43;1.50;;;10.80;91.90;;;;;;5071826;28;20452;-75
2023/12/26 04:16:00;;;;;;;3.10;1.63;;;10.80;92.30;;;;;;5070999;28;20461;-75
2023/12/26 04:18:26;;;;;;;6.53;1.80;;;10.90;92.20;;;;;;5070193;28;20453;-75
2023/12/26 04:20:51;;;;;;;5.67;1.70;;;10.90;93.20;;;;;;5069966;28;20462;-76
2023/12/26 04:23:17;;;;;;;1.67;1.53;;;10.90;93.00;;;;;;5052360;28;20391;-75
2023/12/26 04:25:42;;;;;;;4.70;1.90;;;10.90;93.20;;;;;;5070218;28;20399;-75
2023/12/26 04:28:08;;;;;;;3.42;1.70;;;10.80;93.60;;;;;;5052442;28;20392;-74
2023/12/26 04:30:33;;;;;;;3.83;1.70;;;10.80;93.70;;;;;;5070333;28;20391;-74
2023/12/26 04:32:59;;;;;;;2.83;1.70;;;10.80;93.40;;;;;;5069668;28;20394;-75
2023/12/26 04:35:24;;;;;;;1.90;1.60;;;10.80;94.00;;;;;;5069504;28;20399;-75
2023/12/26 04:37:50;;;;;;;3.23;1.80;;;10.80;95.90;;;;;;5070115;28;20475;-76
2023/12/26 04:40:16;;;;;;;4.80;1.70;;;10.80;94.90;;;;;;5070749;28;20908;-75
2023/12/26 04:42:42;;;;;;;6.95;1.80;;;10.80;91.90;;;;;;5070630;28;20449;-75
2023/12/26 04:45:07;;;;;;;6.55;1.92;;;10.90;91.20;;;;;;5069728;28;20380;-75
2023/12/26 04:47:33;;;;;;;4.93;2.20;;;10.90;90.10;;;;;;5070031;28;20406;-74
2023/12/26 04:49:59;;;;;;;4.80;1.80;;;10.90;89.50;;;;;;5069844;28;20735;-75
2023/12/26 04:52:25;;;;;;;6.22;2.20;;;10.90;90.50;;;;;;5070472;28;20722;-74
2023/12/26 04:54:50;;;;;;;2.50;1.55;;;10.90;90.40;;;;;;5076675;28;20408;-74
2023/12/26 04:57:17;;;;;;;6.97;1.90;;;10.60;99.90;;;;;;5059443;28;20400;-74
2023/12/26 04:59:42;;;;;;;3.72;1.70;;;10.40;99.90;;;;;;5073096;28;20441;-74
2023/12/26 05:02:08;;;;;;;3.50;1.67;;;10.40;99.90;;;;;;5073260;28;20376;-74
2023/12/26 05:04:33;;;;;;;1.92;1.15;;;10.20;99.90;;;;;;5073288;28;20376;-72
2023/12/26 05:06:59;;;;;;;4.25;1.30;;;10.10;99.90;;;;;;5074675;28;20380;-72
2023/12/26 05:09:24;;;;;;;4.83;1.90;;;10.10;99.90;;;;;;5074869;28;20383;-74
2023/12/26 05:11:51;;;;;;;3.30;2.30;;;10.20;99.90;;;;;;5075640;28;20480;-73
2023/12/26 05:14:18;;;;;;;5.20;2.00;;;10.20;99.90;;;;;;5073596;28;20474;-75
2023/12/26 05:16:45;;;;;;;7.35;1.90;;;10.20;99.90;;;;;;5073168;28;20396;-75
2023/12/26 05:19:10;;;;;;;4.13;1.70;;;10.20;99.90;;;;;;5073374;28;20742;-74
2023/12/26 05:21:36;;;;;;;2.65;1.27;;;10.20;99.90;;;;;;5073938;28;20372;-75
2023/12/26 05:24:03;;;;;;;2.63;1.50;;;10.20;99.90;;;;;;5074976;28;20392;-74
2023/12/26 05:26:28;;;;;;;3.00;1.20;;;10.20;99.90;;;;;;5075759;28;20429;-74
2023/12/26 05:28:54;;;;;;;3.17;1.70;;;10.20;99.90;;;;;;5076209;28;20396;-75
2023/12/26 05:31:20;;;;;;;1.75;1.20;;;10.20;99.90;;;;;;5075902;28;20421;-74
2023/12/26 05:33:46;;;;;;;4.90;1.30;;;10.20;99.90;;;;;;5080756;28;20406;-74
2023/12/26 05:36:12;;;;;;;2.83;1.30;;;10.20;99.90;;;;;;5083541;28;20396;-74
2023/12/26 05:38:37;;;;;;;2.57;1.00;;;10.20;99.90;;;;;;5084102;28;20874;-75
2023/12/26 05:41:04;;;;;;;2.60;1.20;;;10.30;99.90;;;;;;5086882;28;20363;-75
2023/12/26 05:43:30;;;;;;;2.50;1.20;;;10.20;99.90;;;;;;5081564;28;20383;-72
2023/12/26 05:45:56;;;;;;;4.15;1.70;;;10.20;99.90;;;;;;5076546;28;20476;-75
2023/12/26 05:48:22;;;;;;;3.97;2.13;;;10.30;99.90;;;;;;5083045;28;20450;-75
2023/12/26 05:50:47;;;;;;;3.72;1.80;;;10.20;99.90;;;;;;5089059;28;20439;-74
2023/12/26 05:53:13;;;;;;;5.20;1.67;;;10.20;99.90;;;;;;5089150;28;20383;-75
2023/12/26 05:55:38;;;;;;;2.70;1.70;;;10.20;99.90;;;;;;5090287;28;20375;-73
2023/12/26 05:58:04;;;;;;;3.38;1.90;;;10.20;99.90;;;;;;5090190;28;20411;-72
2023/12/26 06:00:29;;;;;;;3.00;1.70;;;10.20;99.90;;;;;;5087090;28;20394;-74
2023/12/26 06:02:55;;;;;;;7.50;2.63;;;10.20;99.90;;;;;;5080674;28;20399;-73
2023/12/26 06:05:20;;;;;;;5.97;2.87;;;10.20;99.90;;;;;;5071552;28;20480;-73
2023/12/26 06:07:46;;;;;;;9.17;2.63;;;10.20;99.90;;;;;;5072450;28;20474;-75
2023/12/26 06:10:13;;;;;;;9.73;3.30;;;10.20;99.90;;;;;;5072387;28;20380;-75
2023/12/26 06:12:39;;;;;;;9.07;3.22;;;10.20;99.90;;;;;;5072141;28;20394;-74
2023/12/26 06:15:05;;;;;;;5.75;2.80;;;10.20;99.90;;;;;;5071719;28;20767;-72
2023/12/26 06:17:31;;;;;;;7.55;3.20;;;10.10;99.90;;;;;;5071591;28;20974;-74
2023/12/26 06:19:57;;;;;;;5.00;2.83;;;10.10;99.90;;;;;;5072015;28;20407;-74
2023/12/26 06:22:22;;;;;;;7.73;3.20;;;10.10;99.90;;;;;;5080025;28;20436;-75
2023/12/26 06:24:48;;;;;;;5.53;2.60;;;10.10;99.90;;;;;;5087032;28;20452;-74
2023/12/26 06:27:14;;;;;;;8.30;3.30;;;10.10;99.90;;;;;;5073264;28;20445;-74
2023/12/26 06:29:39;;;;;;;5.30;2.80;;;10.10;99.90;;;;;;5071602;28;20395;-74
2023/12/26 06:32:05;;;;;;;9.95;3.20;;;10.10;99.90;;;;;;5071443;28;20387;-74
2023/12/26 06:34:30;;;;;;;7.68;3.65;;;10.10;99.90;;;;;;5071262;28;20399;-73
2023/12/26 06:36:56;;;;;;;9.97;3.43;;;10.10;99.90;;;;;;5071288;28;20404;-74
2023/12/26 06:39:22;;;;;;;6.85;2.80;;;10.10;99.90;;;;;;5071362;28;20383;-75
2023/12/26 06:41:47;;;;;;;9.52;2.90;;;10.10;99.90;;;;;;5071689;28;20894;-74
2023/12/26 06:44:13;;;;;;;5.65;2.90;;;10.10;99.90;;;;;;5071432;28;20407;-74
2023/12/26 06:46:41;;;;;;;6.90;3.80;;;10.10;99.90;;;;;;5071554;28;20383;-75
2023/12/26 06:49:08;;;;;;;9.27;3.05;;;10.10;99.90;;;;;;5071528;28;20886;-73
2023/12/26 06:51:38;;;;;;;7.18;3.20;;;10.10;99.90;;;;;;5053760;28;20740;-76
2023/12/26 06:54:03;;;;;;;5.13;3.10;;;10.00;99.90;;;;;;5071307;28;20437;-74
2023/12/26 06:56:29;;;;;;;6.23;3.20;;;10.10;99.90;;;;;;5071604;28;20506;-73
2023/12/26 06:58:54;;;;;;;8.63;3.60;;;10.10;99.90;;;;;;5071917;28;20414;-75
2023/12/26 07:01:20;;;;;;;10.00;3.10;;;10.10;99.90;;;;;;5070461;28;20384;-73
2023/12/26 07:03:45;;;;;;;6.40;3.05;;;10.20;99.90;;;;;;5071139;28;20388;-73
2023/12/26 07:06:11;;;;;;;7.85;3.50;;;10.20;97.60;;;;;;5070668;28;20391;-73
2023/12/26 07:08:36;;;;;;;8.67;2.90;;;10.20;96.80;;;;;;5069765;28;20426;-73
2023/12/26 07:11:02;;;;;;;9.83;3.70;;;10.30;97.20;;;;;;5070329;28;20848;-73
2023/12/26 07:13:28;;;;;;;5.90;2.70;;;10.30;95.50;;;;;;5070055;28;20392;-74
2023/12/26 07:15:53;;;;;;;5.33;3.07;;;10.30;93.00;;;;;;5069670;28;20403;-73
2023/12/26 07:18:19;;;;;;;7.45;3.20;;;10.30;94.80;;;;;;5069518;28;20440;-75
2023/12/26 07:20:44;;;;;;;6.05;2.70;;;10.30;89.00;;;;;;5069795;28;20451;-73
2023/12/26 07:23:10;;;;;;;6.97;3.10;;;10.20;90.10;;;;;;5069211;28;20382;-73
2023/12/26 07:25:37;;;;;;;10.27;2.90;;;10.30;85.60;;;;;;5067497;28;20917;-73
2023/12/26 07:28:03;;;;;;;11.15;2.47;;;10.20;87.30;;;;;;5069835;28;20375;-73
2023/12/26 07:30:29;;;;;;;13.00;2.40;;;10.20;83.10;;;;;;5069743;28;20404;-74
2023/12/26 07:32:54;;;;;;;8.20;2.40;;;10.20;82.40;;;;;;5052070;28;20800;-73
2023/12/26 07:35:20;;;;;;;11.97;2.40;;;10.20;82.70;;;;;;5070202;28;20517;-72
2023/12/26 07:37:45;;;;;;;7.50;2.90;;;10.10;83.00;;;;;;5071211;28;20453;-73
2023/12/26 07:40:12;;;;;;;7.00;2.10;;;10.10;79.20;;;;;;5070677;28;20419;-74
2023/12/26 07:42:37;;;;;;;4.13;1.90;;;10.10;81.00;;;;;;5071300;28;20769;-73
2023/12/26 07:45:04;;;;;;;7.10;2.05;;;10.20;78.20;;;;;;5071035;28;20723;-74
2023/12/26 07:47:29;;;;;;;5.88;2.00;;;10.20;72.10;;;;;;5070753;28;20388;-76
2023/12/26 07:49:55;;;;;;;8.00;1.87;;;10.20;72.00;;;;;;5070817;28;20456;-74
2023/12/26 07:52:20;;;;;;;5.10;2.00;;;10.20;70.10;;;;;;5070770;28;20886;-73
2023/12/26 07:54:46;;;;;;;7.22;2.00;;;10.20;66.40;;;;;;5069733;28;20729;-73
2023/12/26 07:57:11;;;;;;;9.02;1.70;;;10.20;67.50;;;;;;5051532;28;20408;-75
2023/12/26 07:59:37;;;;;;;6.27;1.70;;;10.20;66.60;;;;;;5070159;28;20382;-73
2023/12/26 08:02:03;;;;;;;10.40;2.00;;;10.30;64.30;;;;;;5069916;28;20372;-73
2023/12/26 08:04:28;;;;;;;5.20;2.10;;;10.30;63.10;;;;;;5069848;28;20408;-73
2023/12/26 08:06:54;;;;;;;11.73;1.90;;;10.30;64.10;;;;;;5069065;28;20397;-76
2023/12/26 08:09:19;;;;;;;6.53;1.60;;;10.30;61.80;;;;;;5069996;28;20541;-74
2023/12/26 08:11:45;;;;;;;8.27;1.80;;;10.30;60.60;;;;;;5085666;28;20457;-73
2023/12/26 08:14:13;;;;;;;6.32;1.90;;;10.40;59.80;;;;;;5087368;28;20383;-72
2023/12/26 08:16:38;;;;;;;8.63;1.77;;;10.40;58.90;;;;;;5084525;28;20403;-75
2023/12/26 08:19:04;;;;;;;8.13;1.90;;;10.30;59.30;;;;;;5080147;28;20390;-73
2023/12/26 08:21:29;;;;;;;8.25;2.00;;;10.30;57.90;;;;;;5072486;28;20383;-74
2023/12/26 08:23:55;;;;;;;6.80;1.60;;;10.30;57.50;;;;;;5071562;28;20394;-74
2023/12/26 08:26:21;;;;;;;4.80;1.80;;;10.40;56.20;;;;;;5068653;28;20392;-73
2023/12/26 08:28:47;;;;;;;6.13;1.80;;;10.40;57.50;;;;;;5075418;28;20376;-73
2023/12/26 08:31:14;;;;;;;8.70;1.80;;;10.40;56.10;;;;;;5073567;28;20444;-74
2023/12/26 08:33:40;;;;;;;7.90;1.80;;;10.40;54.60;;;;;;5072082;28;20383;-75
2023/12/26 08:36:06;;;;;;;9.10;1.90;;;10.50;52.90;;;;;;5071384;28;20996;-73
2023/12/26 08:38:31;;;;;;;7.35;1.90;;;10.50;54.10;;;;;;5072004;28;20478;-75
2023/12/26 08:40:57;;;;;;;7.90;1.92;;;10.40;54.70;;;;;;5072409;28;20383;-74
2023/12/26 08:43:22;;;;;;;8.20;2.00;;;10.50;53.50;;;;;;5071955;28;20387;-73
2023/12/26 08:45:48;;;;;;;8.93;2.00;;;10.50;52.40;;;;;;5052743;28;20404;-73
2023/12/26 08:48:13;;;;;;;6.03;2.00;;;10.50;52.10;;;;;;5055755;28;20389;-76
2023/12/26 08:50:39;;;;;;;8.07;2.30;;;10.50;52.20;;;;;;5058573;28;20380;-75
2023/12/26 08:53:05;;;;;;;9.73;1.90;;;10.60;50.50;;;;;;5072205;28;20743;-74
2023/12/26 08:55:30;;;;;;;8.25;2.03;;;10.60;48.90;;;;;;5069803;28;20575;-74
2023/12/26 08:57:56;;;;;;;5.40;2.20;;;10.60;49.90;;;;;;5058983;28;20393;-75
2023/12/26 09:00:21;;;;;;;12.93;2.03;;;10.70;48.60;;;;;;5074461;28;20380;-78
2023/12/26 09:02:47;;;;;;;8.13;2.50;;;10.70;47.20;;;;;;5082661;28;20777;-79
2023/12/26 09:05:13;;;;;;;5.27;1.90;;;10.70;46.80;;;;;;5060174;28;20392;-77
2023/12/26 09:07:38;;;;;;;10.73;2.23;;;10.80;47.30;;;;;;5076666;28;20384;-73
2023/12/26 09:10:06;;;;;;;9.52;1.83;;;10.70;46.60;;;;;;5074456;28;20392;-73
2023/12/26 09:12:31;;;;;;;9.30;2.70;;;10.80;46.80;;;;;;5074935;28;20446;-75
2023/12/26 09:14:57;;;;;;;9.73;2.25;;;10.80;46.60;;;;;;5074046;28;20423;-76
2023/12/26 09:17:23;;;;;;;9.65;1.70;;;10.80;45.80;;;;;;5075010;28;20447;-73
2023/12/26 09:19:48;;;;;;;12.05;2.45;;;10.80;46.60;;;;;;5072980;28;20974;-75
2023/12/26 09:22:14;;;;;;;11.80;2.05;;;10.90;46.00;;;;;;5074756;28;20421;-72
2023/12/26 09:24:43;;;;;;;8.57;2.40;;;10.90;46.20;;;;;;5066300;28;20873;-73
2023/12/26 09:27:09;;;;;;;6.53;2.17;;;11.10;45.70;;;;;;5072607;28;20384;-74
2023/12/26 09:29:35;;;;;;;12.80;1.90;;;11.30;45.40;;;;;;5054532;28;20386;-74
2023/12/26 09:32:01;;;;;;;8.63;2.00;;;11.60;44.40;;;;;;5053431;28;20405;-75
2023/12/26 09:34:26;;;;;;;6.50;2.00;;;11.90;44.40;;;;;;5053343;28;20472;-73
2023/12/26 09:36:52;;;;;;;9.27;2.30;;;11.90;43.70;;;;;;5053593;28;20831;-74
2023/12/26 09:39:17;;;;;;;5.90;1.95;;;11.80;43.50;;;;;;5054495;28;20420;-75
2023/12/26 09:41:44;;;;;;;8.88;2.05;;;11.60;44.00;;;;;;5073617;28;20383;-75
2023/12/26 09:44:10;;;;;;;9.13;2.20;;;11.50;45.30;;;;;;5073654;28;20390;-75
2023/12/26 09:46:37;;;;;;;8.35;2.25;;;11.40;46.20;;;;;;5073018;28;20387;-72
2023/12/26 09:49:03;;;;;;;8.43;2.28;;;11.30;47.80;;;;;;5055221;28;20889;-74
2023/12/26 09:51:32;;;;;;;8.50;1.80;;;11.20;48.30;;;;;;5072894;28;20843;-74
2023/12/26 09:54:03;;;;;;;6.25;2.42;;;11.30;48.80;;;;;;5072987;28;20383;-75
2023/12/26 09:56:31;;;;;;;8.95;2.42;;;11.30;48.70;;;;;;5073497;28;20501;-74
2023/12/26 09:58:58;;;;;;;12.15;2.70;;;11.40;49.00;;;;;;5073774;28;20376;-73
2023/12/26 10:01:23;;;;;;;6.05;2.60;;;11.50;49.40;;;;;;5073499;28;20850;-74
2023/12/26 10:03:49;;;;;;;10.53;3.00;;;11.60;49.60;;;;;;5072646;28;20467;-74
2023/12/26 10:06:15;;;;;;;9.07;2.78;;;11.70;49.00;;;;;;5073189;28;20390;-73
2023/12/26 10:08:42;;;;;;;11.10;3.60;;;11.70;49.20;;;;;;5073453;28;20470;-74
2023/12/26 10:11:15;;;;;;;11.52;3.28;;;11.70;49.40;;;;;;5073711;28;20386;-75
2023/12/26 10:13:49;;;;;;;11.38;3.63;;;11.70;49.80;;;;;;5073593;28;20441;-73
2023/12/26 10:16:15;;;;;;;10.57;4.15;;;11.70;49.50;;;;;;5072824;28;20426;-74
2023/12/26 10:18:41;;;;;;;17.27;4.80;;;11.60;49.70;;;;;;5073882;28;20376;-71
2023/12/26 10:21:06;;;;;;;12.23;4.30;;;11.50;50.70;;;;;;5071381;28;20389;-74
2023/12/26 10:23:32;;;;;;;9.57;3.80;;;11.40;50.90;;;;;;5063254;28;20474;-74
2023/12/26 10:25:59;;;;;;;13.30;4.10;;;11.40;52.20;;;;;;5072810;28;20403;-73
2023/12/26 10:28:24;;;;;;;13.23;3.70;;;11.20;52.80;;;;;;5075344;28;20402;-75
2023/12/26 10:30:50;;;;;;;9.55;3.15;;;11.30;52.10;;;;;;5059261;28;20745;-76
2023/12/26 10:33:26;;;;;;;13.32;3.63;;;11.20;49.80;;;;;;5073227;28;20457;-75
2023/12/26 10:36:04;;;;;;;16.65;3.10;;;11.00;50.40;;;;;;5072623;28;20894;-75
2023/12/26 10:38:29;;;;;;;7.25;2.40;;;10.90;48.30;;;;;;5072533;28;20849;-74
2023/12/26 10:40:59;;;;;;;9.40;2.10;;;10.80;48.30;;;;;;5072026;28;20406;-75
2023/12/26 10:43:31;;;;;;;7.28;2.20;;;10.60;47.60;;;;;;5089118;28;20444;-75
2023/12/26 10:45:57;;;;;;;12.87;3.10;;;10.50;50.10;;;;;;5091080;28;20391;-74
2023/12/26 10:48:32;;;;;;;14.80;4.30;;;10.50;49.30;;;;;;5073315;28;20439;-72
2023/12/26 10:50:59;;;;;;;12.18;3.00;;;10.50;48.90;;;;;;5089556;28;20395;-74
2023/12/26 10:53:31;;;;;;;6.93;1.80;;;10.50;49.10;;;;;;5091329;28;20372;-75
2023/12/26 10:55:58;;;;;;;12.07;2.67;;;10.60;47.80;;;;;;5089675;28;20418;-74
2023/12/26 10:58:29;;;;;;;11.55;3.30;;;10.60;48.10;;;;;;5072520;28;20384;-73
2023/12/26 11:00:55;;;;;;;13.57;3.38;;;10.60;47.20;;;;;;5076586;28;20387;-75
2023/12/26 11:03:21;;;;;;;15.18;3.15;;;10.70;46.00;;;;;;5074267;28;20882;-75
2023/12/26 11:05:46;;;;;;;17.27;2.80;;;10.80;45.40;;;;;;5055803;28;20453;-76
2023/12/26 11:08:12;;;;;;;11.23;2.50;;;10.90;45.10;;;;;;5073375;28;20380;-74
2023/12/26 11:10:38;;;;;;;13.40;2.72;;;11.00;43.90;;;;;;5075195;28;20770;-74
2023/12/26 11:13:03;;;;;;;15.65;3.08;;;11.10;42.60;;;;;;5073318;28;20483;-75
2023/12/26 11:15:30;;;;;;;13.63;2.53;;;11.20;41.20;;;;;;5073036;28;20386;-74
2023/12/26 11:17:56;;;;;;;11.55;2.67;;;11.10;41.10;;;;;;5072541;28;20817;-73
2023/12/26 11:20:22;;;;;;;10.10;2.65;;;11.00;41.30;;;;;;5072129;28;20384;-74
2023/12/26 11:22:48;;;;;;;12.25;3.30;;;11.00;41.80;;;;;;5072766;28;20387;-75
2023/12/26 11:25:13;;;;;;;13.07;2.40;;;11.00;40.90;;;;;;5075063;28;20432;-75
2023/12/26 11:27:39;;;;;;;11.02;2.63;;;11.10;40.50;;;;;;5072796;28;20394;-74
2023/12/26 11:30:04;;;;;;;11.87;3.00;;;11.30;39.80;;;;;;5072327;28;20391;-74
2023/12/26 11:32:30;;;;;;;9.57;2.07;;;11.30;39.20;;;;;;5072832;28;20866;-75
2023/12/26 11:34:56;;;;;;;11.57;3.47;;;11.30;39.00;;;;;;5072623;28;20391;-75
2023/12/26 11:37:24;;;;;;;13.70;2.50;;;11.30;38.70;;;;;;5070974;28;20450;-75
2023/12/26 11:39:49;;;;;;;16.80;2.90;;;11.40;39.00;;;;;;5073013;28;20461;-76
2023/12/26 11:42:15;;;;;;;12.77;3.50;;;11.50;38.30;;;;;;5074018;28;20380;-76
2023/12/26 11:44:41;;;;;;;11.50;3.90;;;11.40;38.50;;;;;;5073575;28;20403;-77
2023/12/26 11:47:06;;;;;;;10.63;2.50;;;11.40;38.70;;;;;;5072954;28;20419;-75
2023/12/26 11:49:32;;;;;;;15.13;3.10;;;11.30;38.70;;;;;;5057486;28;20457;-75
2023/12/26 11:51:58;;;;;;;11.20;3.00;;;11.30;38.10;;;;;;5077551;28;20538;-75
2023/12/26 11:54:23;;;;;;;7.30;1.80;;;11.30;38.90;;;;;;5072148;28;20388;-73
2023/12/26 11:56:49;;;;;;;10.88;3.20;;;11.30;39.20;;;;;;5071368;28;20403;-74
2023/12/26 11:59:14;;;;;;;16.17;3.70;;;11.40;38.40;;;;;;5071515;28;20423;-75
2023/12/26 12:01:40;;;;;;;8.83;2.30;;;11.30;38.10;;;;;;5073872;28;20734;-75
2023/12/26 12:04:05;;;;;;;16.67;2.93;;;11.30;37.80;;;;;;5081246;28;20392;-76
2023/12/26 12:06:31;;;;;;;10.50;2.90;;;11.40;38.00;;;;;;5075218;28;20903;-76
2023/12/26 12:09:04;;;;;;;15.07;3.30;;;11.40;37.60;;;;;;5075938;28;20388;-74
2023/12/26 12:11:29;;;;;;;10.95;3.22;;;11.30;38.00;;;;;;5075892;28;20379;-75
2023/12/26 12:13:55;;;;;;;8.32;2.97;;;11.30;38.60;;;;;;5076298;28;20900;-76
2023/12/26 12:16:27;;;;;;;11.02;2.60;;;11.30;38.70;;;;;;5085643;28;20484;-75
2023/12/26 12:19:02;;;;;;;8.15;3.08;;;11.40;38.50;;;;;;5092605;28;20489;-73
2023/12/26 12:21:37;;;;;;;8.97;2.07;;;11.40;37.20;;;;;;5090663;28;20421;-74
2023/12/26 12:24:04;;;;;;;12.07;2.03;;;11.40;36.90;;;;;;5094562;28;20384;-75
2023/12/26 12:27:05;;;;;;;7.13;2.40;;;11.50;37.10;;;;;;5094135;28;20402;-73
2023/12/26 12:30:04;;;;;;;15.05;3.08;;;11.50;37.50;;;;;;5094834;28;20459;-75
2023/12/26 12:32:36;;;;;;;7.72;2.50;;;11.60;37.00;;;;;;5090085;28;20394;-75
2023/12/26 12:35:16;;;;;;;13.00;3.30;;;11.60;36.70;;;;;;5093771;28;20399;-74
2023/12/26 12:37:42;;;;;;;15.07;2.97;;;11.70;36.70;;;;;;5094084;28;20383;-73
2023/12/26 12:40:08;;;;;;;12.45;2.65;;;11.80;37.00;;;;;;5077115;28;20418;-75
2023/12/26 12:42:36;;;;;;;11.07;3.40;;;11.70;36.00;;;;;;5093155;28;20405;-75